AGROMETEOROLOŠKI PORTAL

Vinorodna pokrajina

Temelj dobrega kmetovanja.

Pregled podatkov za lokacijo Gabernik-Rogaška, meteorološka postaja 517691

Pregled senzorjev na lokaciji

ID Ime Zadnja
vrednost
Datum in čas
meritve
(lokalni čas)
Tip
senzorja
7286 Omočenost lista (1,5 m) (U) 10 U 2.3.2024 07:30 A730WET
7285 Padavine (mm) 0 mm 2.3.2024 07:30 Generic 0.2 mm
7284 Relativna zračna vlaga (2 m) (%RH) 94 %RH 2.3.2024 07:30 50YA
7283 Temperatura (2 m) (°C) 6,4 °C 2.3.2024 07:30 50YA

Pregled podatkov zadnjih 24 ur

Zap.
št.
Datum in čas
(lokalni čas)
Gabernik-Rogaška
Omočenost
lista
(1,5
m)
Padavine Relativna
zračna
vlaga
(2
m)
Temperatura
(2
m)
1 2.3.2024 07:30 10 0 93,7 6,4
2 2.3.2024 07:00 10 0 94 6,5
3 2.3.2024 06:30 10 0 94,1 6,4
4 2.3.2024 06:00 10 0 94,6 6,5
5 2.3.2024 05:30 10 0 95,1 6,5
6 2.3.2024 05:00 10 0 95,4 6,5
7 2.3.2024 04:30 10 0 95,5 6,6
8 2.3.2024 04:00 10 0 95,6 6,4
9 2.3.2024 03:30 10 0 95,6 6,3
10 2.3.2024 03:00 10 0 95,4 5,8
11 2.3.2024 02:30 10 0 95,4 5,3
12 2.3.2024 02:00 10 0 95,3 5,1
13 2.3.2024 01:30 10 0 95,2 5
14 2.3.2024 01:00 10 0 94,8 4,8
15 2.3.2024 00:30 10 0 94,8 5
16 2.3.2024 00:00 10 0 94,4 4,5
17 1.3.2024 23:30 10 0 93,8 5,1
18 1.3.2024 23:00 10 0 93 5,5
19 1.3.2024 22:30 10 0 92,1 6,1
20 1.3.2024 22:00 10 0 90,3 7
21 1.3.2024 21:30 10 0 89,8 7,4
22 1.3.2024 21:00 10 0 90,1 7,3
23 1.3.2024 20:30 10 0 90,4 7,1
24 1.3.2024 20:00 10 0 88,6 7,2
25 1.3.2024 19:30 10 0 87 7,7
26 1.3.2024 19:00 10 0 87,8 7,7
27 1.3.2024 18:30 10 0 85,8 8,4
28 1.3.2024 18:00 7 0 88,5 8,8
29 1.3.2024 17:30 0 0 86,7 9,2
30 1.3.2024 17:00 0 0 86,7 9,4
31 1.3.2024 16:30 0 0 85,7 9,8
32 1.3.2024 16:00 0 0 83,1 10,4
33 1.3.2024 15:30 0 0 84,4 9,9
34 1.3.2024 15:00 0 0 85,7 9,7
35 1.3.2024 14:30 1 0 89,4 9,1
36 1.3.2024 14:00 1 0 90 9
37 1.3.2024 13:30 1 0 90,4 9
38 1.3.2024 13:00 1 0 90,2 9,1
39 1.3.2024 12:30 8 0 90,1 8,6
40 1.3.2024 12:00 9 0 90,3 8,3
41 1.3.2024 11:30 10 0,2 92,4 8
42 1.3.2024 11:00 10 0,4 94,4 7,6
43 1.3.2024 10:30 10 0,6 94,4 7,4
44 1.3.2024 10:00 10 0,4 94,4 7,4
45 1.3.2024 09:30 10 0,2 94,3 7,2
46 1.3.2024 09:00 10 0 94,4 7,1
47 1.3.2024 08:30 10 0 94,4 6,8
48 1.3.2024 08:00 10 0 94,1 6,6